Weather at Accomack County Airport

Public forecast

Using degrees Fahrenheit for public forecast. Weather courtesy of forecast.io.

Current aviation weather report (METAR) for Accomack County Airport

Retrieved 2020/09/30 00:35 UTC (0 seconds ago):

KMFV 300035Z AUTO 16012G23KT 10SM -DZ OVC007 23/21 A2970 RMK AO2 P0001 T02270210

Closest aviation forecast (TAF) to Accomack County Airport

Closest forecast is Salisbury Ocean City Wicomico Regional Airport, 43.3 nm (80.2 km) NNE. Retrieved 2020-09-30 00:22 UTC (0 seconds ago):

TAF KSBY 292320Z 3000/3024 17008KT P6SM VCSH SCT015 BKN040 FM300300 23010KT 5SM SHRA OVC012 TEMPO 3003/3006 2SM +SHRA BR OVC005 FM300600 34008KT 3SM SHRA OVC006 FM301200 28009KT P6SM OVC013 FM301800 25010KT P6SM SKC